createdAt,value
2019-05-05T00:08:35.213Z,3.36
2019-05-05T00:18:41.017Z,3.29
2019-05-05T00:28:45.537Z,3.27
2019-05-05T00:38:50.030Z,3.27
2019-05-05T00:48:55.112Z,3.35
2019-05-05T00:59:01.386Z,3.41
2019-05-05T01:09:08.041Z,3.46
2019-05-05T01:19:14.913Z,3.47
2019-05-05T01:29:19.202Z,3.53
2019-05-05T01:39:25.670Z,3.55
2019-05-05T01:49:30.170Z,3.62
2019-05-05T01:59:35.501Z,3.62
2019-05-05T02:09:40.186Z,3.62
2019-05-05T02:19:45.933Z,3.62
2019-05-05T02:29:52.113Z,3.69
2019-05-05T02:40:02.647Z,3.74
2019-05-05T02:50:08.377Z,3.79
2019-05-05T03:00:26.995Z,3.84
2019-05-05T03:10:33.963Z,3.77
2019-05-05T03:20:39.775Z,3.72
2019-05-05T03:30:45.771Z,3.65
2019-05-05T03:40:54.128Z,3.65
2019-05-05T03:50:58.646Z,3.65
2019-05-05T04:01:36.481Z,3.63
2019-05-05T04:11:41.846Z,3.66
2019-05-05T04:21:48.355Z,3.74
2019-05-05T04:31:54.059Z,3.89
2019-05-05T04:41:58.702Z,4.00
2019-05-05T04:52:14.703Z,4.00
2019-05-05T05:02:29.880Z,4.09
2019-05-05T05:12:34.401Z,4.14
2019-05-05T05:22:38.899Z,4.18
2019-05-05T05:32:44.521Z,4.23
2019-05-05T05:42:49.368Z,4.38
2019-05-05T05:52:54.150Z,4.42
2019-05-05T06:02:58.691Z,4.58
2019-05-05T06:13:04.088Z,4.65
2019-05-05T06:23:09.842Z,4.67
2019-05-05T06:33:16.090Z,4.68
2019-05-05T06:43:40.257Z,4.82
2019-05-05T06:53:44.781Z,5.39
2019-05-05T07:03:50.238Z,5.71
2019-05-05T07:13:54.803Z,5.82
2019-05-05T07:23:59.425Z,6.63
2019-05-05T07:34:05.734Z,7.51
2019-05-05T07:44:25.073Z,7.19
2019-05-05T07:54:16.582Z,6.99
2019-05-05T08:04:21.246Z,7.11
2019-05-05T08:14:25.689Z,8.06
2019-05-05T08:24:47.808Z,8.26
2019-05-05T08:34:59.708Z,8.49
2019-05-05T08:44:59.535Z,8.83
2019-05-05T08:55:04.788Z,8.75
2019-05-05T09:05:09.433Z,8.89
2019-05-05T09:15:14.169Z,9.20
2019-05-05T09:25:35.006Z,9.39
2019-05-05T09:35:39.943Z,9.30
2019-05-05T09:45:44.440Z,9.82
2019-05-05T09:55:48.962Z,10.12
2019-05-05T10:05:54.111Z,10.16
2019-05-05T10:15:58.927Z,10.05
2019-05-05T10:26:05.486Z,10.64
2019-05-05T10:36:10.170Z,11.06
2019-05-05T10:46:14.693Z,11.50
2019-05-05T10:56:21.388Z,11.54
2019-05-05T11:06:26.017Z,11.45
2019-05-05T11:16:30.759Z,10.82
2019-05-05T11:26:35.542Z,11.62
2019-05-05T11:36:44.559Z,11.57
2019-05-05T11:46:49.140Z,11.84
2019-05-05T11:56:54.157Z,12.69
2019-05-05T12:06:58.891Z,12.76
2019-05-05T12:17:04.583Z,13.22
2019-05-05T12:27:11.248Z,14.23
2019-05-05T12:37:15.747Z,14.27
2019-05-05T12:47:24.643Z,13.74
2019-05-05T12:57:29.796Z,13.95
2019-05-05T13:07:34.602Z,13.30
2019-05-05T13:17:39.462Z,12.61
2019-05-05T13:27:45.785Z,12.32
2019-05-05T13:37:50.442Z,12.69
2019-05-05T13:47:55.761Z,12.15
2019-05-05T13:58:00.711Z,12.33
2019-05-05T14:08:05.456Z,12.20
2019-05-05T14:18:11.022Z,11.53
2019-05-05T14:28:18.154Z,11.42
2019-05-05T14:38:23.658Z,11.67
2019-05-05T14:48:28.068Z,11.13
2019-05-05T14:58:32.541Z,11.13
2019-05-05T15:08:38.781Z,10.80
2019-05-05T15:18:43.967Z,10.72
2019-05-05T15:29:00.715Z,10.79
2019-05-05T15:38:55.291Z,10.93
2019-05-05T15:48:59.862Z,10.76
2019-05-05T15:59:04.369Z,10.75
2019-05-05T16:09:09.283Z,10.84
2019-05-05T16:19:31.365Z,10.70
2019-05-05T16:29:35.796Z,10.60
2019-05-05T16:39:40.294Z,10.60
2019-05-05T16:49:44.923Z,10.70
2019-05-05T16:59:49.569Z,10.62
2019-05-05T17:09:55.532Z,10.59
2019-05-05T17:20:04.892Z,10.93
2019-05-05T17:30:10.011Z,11.36
2019-05-05T17:40:16.326Z,10.73
2019-05-05T17:50:23.821Z,10.41
2019-05-05T18:00:30.341Z,10.34
2019-05-05T18:10:42.228Z,10.03
2019-05-05T18:20:46.966Z,9.68
2019-05-05T18:30:53.817Z,9.38
2019-05-05T18:40:59.848Z,9.12
2019-05-05T18:51:06.451Z,8.91
2019-05-05T19:01:21.679Z,8.70
2019-05-05T19:11:26.322Z,8.49
2019-05-05T19:21:38.468Z,8.25
2019-05-05T19:31:43.808Z,8.06
2019-05-05T19:41:48.758Z,7.88
2019-05-05T19:51:54.121Z,7.65
2019-05-05T20:01:58.885Z,7.44
2019-05-05T20:12:04.139Z,7.20
2019-05-05T20:22:08.843Z,7.10
2019-05-05T20:32:14.034Z,6.86
2019-05-05T20:42:18.549Z,6.51
2019-05-05T20:52:23.748Z,6.09
2019-05-05T21:02:28.258Z,5.95
2019-05-05T21:12:40.128Z,5.68
2019-05-05T21:22:40.486Z,5.40
2019-05-05T21:32:45.028Z,5.18
2019-05-05T21:42:49.543Z,5.11
2019-05-05T21:52:55.647Z,5.22
2019-05-05T22:03:01.545Z,5.28
2019-05-05T22:13:07.122Z,5.14
2019-05-05T22:23:11.787Z,5.02
2019-05-05T22:33:16.605Z,4.92
2019-05-05T22:43:21.208Z,4.76
2019-05-05T22:53:25.816Z,4.67
2019-05-05T23:03:31.953Z,4.58
2019-05-05T23:13:36.653Z,4.50
2019-05-05T23:23:59.186Z,4.41
2019-05-05T23:34:04.097Z,4.32
2019-05-05T23:44:08.651Z,4.25
2019-05-05T23:54:13.643Z,4.17
